Terminal Aerodrome Forecast
Issued by NWS

Home | Current Version | Previous Version | Text Only | Print | Product List | Glossary Off
Versions: 1 2 3 4 5 6 7 8 9 10 11 12 13 14 15 16 17 18 19 20

140
FTUS43 KBIS 182321
TAFJMS
TAF
KJMS 182321Z 1900/1924 29008KT P6SM SCT250
     FM190600 24005KT P6SM FEW250
     FM191800 28009KT P6SM FEW200=

USA.gov is the U.S. government's official web portal to all federal, state and local government web resources and services.